Evelyn Maersk — OXHV2 — position and weather

sailwx.info

Track history (hours):
 
Tides and Currents Weather Stations Pressure Air Temp Water Temp Dewpoint Dewpoint Depression Visibility Wind Speed Wind Dir Waves Ship Positions

Evelyn Maersk

Last reported at 2015-Jun-26 11:32 UTC. Time now 2015-Jul-05 07:44 UTC.
Position N 36°14' E 014°59'.
Warning: this ship's position is 8 days out of date.

Length 398 m; draft 14.6 m.

Type: Cargo ship. MMSI: 220496000.

Date/timePositionNaut miles runAvg speedWind from/ knotsBaromVisibWave heightAir tempDewpointWater temp
2015-Jun-26 11:32N 36°14' E 014°59'1717.5
2015-Jun-26 10:33N 36°19' E 014°39'1817.7
2015-Jun-26 09:33N 36°24' E 014°18'1717.4
2015-Jun-26 08:33N 36°29' E 013°57'1717.2
2015-Jun-26 07:33N 36°35' E 013°37'1717.4
2015-Jun-26 06:33N 36°40' E 013°17'1817.3
2015-Jun-26 05:33N 36°45' E 012°56'1717.5
2015-Jun-26 04:33N 36°51' E 012°35'3517.6
2015-Jun-26 02:33N 37°05' E 011°55'2317.9
2015-Jun-26 01:16N 37°14' E 011°28'1417.5
2015-Jun-26 00:26N 37°20' E 011°12'1817.7
2015-Jun-25 23:27N 37°26' E 010°51'7017.8
2015-Jun-25 19:33N 37°26' E 009°23'1818.1
2015-Jun-25 18:33N 37°21' E 009°02'2018.1
2015-Jun-25 17:26N 37°17' E 008°37'5918.0
2015-Jun-25 14:10N 37°19' E 007°23'1117.9
2015-Jun-25 13:32N 37°20' E 007°09'1717.8
2015-Jun-25 12:33N 37°21' E 006°47'6017.4
2015-Jun-25 09:05N 37°21' E 005°31'1718.1
2015-Jun-25 08:08N 37°18' E 005°09'1118.2
2015-Jun-25 07:33N 37°17' E 004°56'5417.9
2015-Jun-25 04:33N 37°07' E 003°50'1716.9
2015-Jun-25 03:33N 37°05' E 003°29'1717.1
2015-Jun-25 02:33N 37°02' E 003°08'1818.0
2015-Jun-25 01:32N 36°60' E 002°45'3818.0
2015-Jun-24 23:27N 36°53' E 001°59'5217.7
2015-Jun-24 20:30N 36°45' E 000°54'1817.8
2015-Jun-24 19:28N 36°42' E 000°31'1617.7
2015-Jun-24 18:32N 36°40' E 000°11'1817.6
2015-Jun-24 17:29N 36°36' W 000°11'1920.2
2015-Jun-24 16:33N 36°33' W 000°35'1919.0
2015-Jun-24 15:31N 36°31' W 000°59'1918.7
2015-Jun-24 14:31N 36°28' W 001°21'4117.4
2015-Jun-24 12:10N 36°20' W 002°12'1421.1
2015-Jun-24 11:30N 36°19' W 002°29'13322.4
2015-Jun-24 05:33N 35°59' W 005°12'2821.9
2015-Jun-24 04:17N 35°55' W 005°46'1721.0
2015-Jun-24 03:27N 35°54' W 006°08'57417.2
2015-Jun-22 18:03N 45°16' W 008°38'11821.2
2015-Jun-22 12:29N 47°00' W 007°19'2021.3
2015-Jun-22 11:33N 47°18' W 007°05'2221.6
2015-Jun-22 10:33N 47°37' W 006°49'2221.6
2015-Jun-22 09:33N 47°56' W 006°33'2320.8
2015-Jun-22 08:27N 48°16' W 006°17'1820.3
2015-Jun-22 07:34N 48°32' W 006°05'2020.2
2015-Jun-22 06:34N 48°50' W 005°51'1919.2
2015-Jun-22 05:33N 49°02' W 005°28'1616.4
2015-Jun-22 04:33N 49°11' W 005°07'1616.3
2015-Jun-22 03:33N 49°19' W 004°45'1817.1
2015-Jun-22 02:31N 49°27' W 004°21'1717.4
2015-Jun-22 01:33N 49°35' W 003°58'1716.9
2015-Jun-22 00:32N 49°43' W 003°35'1515.8
2015-Jun-21 23:34N 49°51' W 003°14'1714.9
2015-Jun-21 22:25N 49°58' W 002°50'1314.5
2015-Jun-21 21:33N 50°02' W 002°32'1514.7
2015-Jun-21 20:33N 50°07' W 002°10'2016.1
2015-Jun-21 19:20N 50°12' W 001°41'1417.7
2015-Jun-21 18:32N 50°16' W 001°19'1918.6
2015-Jun-21 17:29N 50°21' W 000°50'1717.9
2015-Jun-21 16:33N 50°25' W 000°24'1716.9
2015-Jun-21 15:33N 50°30' E 000°01'1616.0
2015-Jun-21 14:34N 50°34' E 000°25'1514.7
2015-Jun-21 13:34N 50°40' E 000°47'1514.5
2015-Jun-21 12:34N 50°48' E 001°05'1616.1
2015-Jun-21 11:33N 50°59' E 001°24'2019.6
2015-Jun-21 10:34N 51°13' E 001°46'1616.2
2015-Jun-21 09:33N 51°23' E 002°06'1717.4
2015-Jun-21 08:33N 51°23' E 002°34'1313.2
2015-Jun-21 07:34N 51°25' E 002°55'1514.8
2015-Jun-21 06:34N 51°24' E 003°19'1212.5
2015-Jun-21 05:34N 51°26' E 003°39'1111.2
2015-Jun-21 04:33N 51°22' E 003°55'6 6.3
2015-Jun-21 03:33N 51°22' E 004°05'7 7.5
2015-Jun-21 02:33N 51°19' E 004°16'2 2.0
2015-Jun-21 01:31N 51°18' E 004°15'0 0.0
2015-Jun-21 00:28N 51°18' E 004°15'0 0.0
2015-Jun-20 23:31N 51°18' E 004°15'0 0.0
2015-Jun-20 22:31N 51°18' E 004°15'0 0.0
2015-Jun-20 21:31N 51°18' E 004°15'0 0.0
2015-Jun-20 20:31N 51°18' E 004°15'0 0.0
2015-Jun-20 19:31N 51°18' E 004°15'0 0.0
2015-Jun-20 18:31N 51°18' E 004°15'0 0.0
2015-Jun-20 17:31N 51°18' E 004°15'0 0.0
2015-Jun-20 16:31N 51°18' E 004°15'0 0.0
2015-Jun-20 15:31N 51°18' E 004°15'0 0.0
2015-Jun-20 14:31N 51°18' E 004°15'0 0.0
2015-Jun-20 13:31N 51°18' E 004°15'0 0.0
2015-Jun-20 12:31N 51°18' E 004°15'0 0.0
2015-Jun-20 11:28N 51°18' E 004°15'0 0.0
2015-Jun-20 10:31N 51°18' E 004°15'0 0.0
2015-Jun-20 09:31N 51°18' E 004°15'0 0.0
2015-Jun-20 08:31N 51°18' E 004°15'0 0.0
2015-Jun-20 07:31N 51°18' E 004°15'0 0.0
2015-Jun-20 06:31N 51°18' E 004°15'0 0.0
2015-Jun-20 05:31N 51°18' E 004°15'0 0.0
2015-Jun-20 04:31N 51°18' E 004°16'0 0.0
2015-Jun-20 03:31N 51°18' E 004°15'0 0.0
2015-Jun-20 02:31N 51°18' E 004°15'0 0.0
2015-Jun-20 01:28N 51°18' E 004°15'0 0.0
2015-Jun-20 00:31N 51°18' E 004°15'0 0.0
2015-Jun-19 23:31N 51°18' E 004°15'0 0.0
2015-Jun-19 22:31N 51°18' E 004°15'1 1.2
2015-Jun-19 21:33N 51°19' E 004°16'6 6.4
2015-Jun-19 20:33N 51°22' E 004°08'7 6.9
2015-Jun-19 19:33N 51°23' E 003°57'9 8.6
2015-Jun-19 18:33N 51°23' E 003°43'9 9.0
2015-Jun-19 17:33N 51°25' E 003°29'1616.4
2015-Jun-19 16:33N 51°24' E 003°03'1313.3
2015-Jun-19 15:33N 51°37' E 003°10'1212.4
2015-Jun-19 14:33N 51°48' E 003°19'2 1.0
2015-Jun-19 12:15N 51°49' E 003°22'0 0.0
2015-Jun-19 11:33N 51°49' E 003°22'0 0.0
2015-Jun-19 09:24N 51°49' E 003°22'0 0.1
2015-Jun-19 08:30N 51°49' E 003°22'0 0.1
2015-Jun-19 07:24N 51°49' E 003°22'0 0.1
2015-Jun-19 06:21N 51°49' E 003°23'0 0.1
2015-Jun-19 05:30N 51°49' E 003°23'0 0.0
2015-Jun-19 04:12N 51°49' E 003°23'0 0.0
2015-Jun-19 03:18N 51°49' E 003°23'0 0.0
2015-Jun-19 02:27N 51°49' E 003°23'0 0.1
2015-Jun-19 01:33N 51°49' E 003°23'0 0.1
2015-Jun-18 22:27N 51°49' E 003°22'0 0.1
2015-Jun-18 21:33N 51°49' E 003°22'5 5.2
2015-Jun-18 20:31N 51°54' E 003°19'7 7.3
2015-Jun-18 19:33N 52°01' E 003°19'2712.9
2015-Jun-18 17:26N 52°28' E 003°28'1112.3
2015-Jun-18 16:32N 52°39' E 003°32'1212.1
2015-Jun-18 15:32N 52°49' E 003°41'4 3.7
2015-Jun-18 14:34N 52°53' E 003°44'1 1.1
2015-Jun-18 13:34N 52°53' E 003°42'1 1.2
2015-Jun-18 12:25N 52°54' E 003°41'1214.5
2015-Jun-18 11:33N 52°59' E 004°00'1716.7
2015-Jun-18 10:34N 53°09' E 004°22'1313.2
2015-Jun-18 09:33N 53°21' E 004°32'1111.0
2015-Jun-18 08:33N 53°30' E 004°43'10 9.7
2015-Jun-18 07:33N 53°34' E 004°58'10 9.8
2015-Jun-18 06:33N 53°37' E 005°14'1010.5
2015-Jun-18 05:33N 53°40' E 005°30'1111.4
2015-Jun-18 04:33N 53°44' E 005°49'1212.2
2015-Jun-18 03:33N 53°48' E 006°09'1212.5
2015-Jun-18 02:33N 53°51' E 006°29'1612.5
2015-Jun-18 01:18N 53°55' E 006°55'912.0
2015-Jun-18 00:33N 53°57' E 007°09'1111.5
2015-Jun-17 23:33N 53°59' E 007°29'1010.4
2015-Jun-17 22:34N 53°54' E 007°45'1414.3
2015-Jun-17 21:34N 53°49' E 008°07'1312.8
2015-Jun-17 20:33N 53°40' E 008°23'6 6.0
2015-Jun-17 19:32N 53°36' E 008°31'0 0.0
2015-Jun-17 18:32N 53°36' E 008°31'0 0.0
2015-Jun-17 17:32N 53°36' E 008°31'0 0.0
2015-Jun-17 16:32N 53°36' E 008°31'0 0.0
2015-Jun-17 15:32N 53°36' E 008°31'0 0.0
2015-Jun-17 14:32N 53°36' E 008°31'0 0.0
2015-Jun-17 13:29N 53°36' E 008°31'0 0.0
2015-Jun-17 12:32N 53°36' E 008°31'0 0.0
2015-Jun-17 11:32N 53°36' E 008°31'0 0.0
2015-Jun-17 10:32N 53°36' E 008°31'0 0.0
2015-Jun-17 09:32N 53°36' E 008°31'0 0.0
2015-Jun-17 08:32N 53°36' E 008°31'0 0.0
2015-Jun-17 07:32N 53°36' E 008°31'0 0.0
2015-Jun-17 06:32N 53°36' E 008°31'0 0.0
2015-Jun-17 05:32N 53°36' E 008°31'0 0.0
2015-Jun-17 04:32N 53°36' E 008°31'0 0.0
2015-Jun-17 03:32N 53°36' E 008°31'0 0.0
2015-Jun-17 02:32N 53°36' E 008°31'0 0.0
2015-Jun-17 01:32N 53°36' E 008°31'0 0.0
2015-Jun-17 00:32N 53°36' E 008°31'0 0.0
2015-Jun-16 23:32N 53°36' E 008°31'0 0.0
2015-Jun-16 22:32N 53°36' E 008°31'0 0.0
2015-Jun-16 21:32N 53°36' E 008°31'0 0.0
2015-Jun-16 20:32N 53°36' E 008°31'0 0.0
2015-Jun-16 19:32N 53°36' E 008°31'0 0.0
2015-Jun-16 18:32N 53°36' E 008°31'0 0.0
2015-Jun-16 17:32N 53°36' E 008°31'0 0.0
2015-Jun-16 16:32N 53°36' E 008°31'0 0.0
2015-Jun-16 15:32N 53°36' E 008°31'0 0.0
2015-Jun-16 14:32N 53°36' E 008°31'0 0.0
2015-Jun-16 13:29N 53°36' E 008°31'0 0.0
2015-Jun-16 12:23N 53°36' E 008°31'  
Track history (hours):
 
Tides and Currents Weather Stations Pressure Air Temp Water Temp Dewpoint Dewpoint Depression Visibility Wind Speed Wind Dir Waves Ship Positions

Evelyn Maersk

Last reported at 2015-Jun-26 11:32 UTC. Time now 2015-Jul-05 07:44 UTC.
Position N 36°14' E 014°59'.
Warning: this ship's position is 8 days out of date.

Length 398 m; draft 14.6 m.

Type: Cargo ship. MMSI: 220496000.

Date/timePositionNaut miles runAvg speedWind from/ knotsBaromVisibWave heightAir tempDewpointWater temp
2015-Jun-26 11:32N 36°14' E 014°59'1717.5
2015-Jun-26 10:33N 36°19' E 014°39'1817.7
2015-Jun-26 09:33N 36°24' E 014°18'1717.4
2015-Jun-26 08:33N 36°29' E 013°57'1717.2
2015-Jun-26 07:33N 36°35' E 013°37'1717.4
2015-Jun-26 06:33N 36°40' E 013°17'1817.3
2015-Jun-26 05:33N 36°45' E 012°56'1717.5
2015-Jun-26 04:33N 36°51' E 012°35'3517.6
2015-Jun-26 02:33N 37°05' E 011°55'2317.9
2015-Jun-26 01:16N 37°14' E 011°28'1417.5
2015-Jun-26 00:26N 37°20' E 011°12'1817.7
2015-Jun-25 23:27N 37°26' E 010°51'7017.8
2015-Jun-25 19:33N 37°26' E 009°23'1818.1
2015-Jun-25 18:33N 37°21' E 009°02'2018.1
2015-Jun-25 17:26N 37°17' E 008°37'5918.0
2015-Jun-25 14:10N 37°19' E 007°23'1117.9
2015-Jun-25 13:32N 37°20' E 007°09'1717.8
2015-Jun-25 12:33N 37°21' E 006°47'6017.4
2015-Jun-25 09:05N 37°21' E 005°31'1718.1
2015-Jun-25 08:08N 37°18' E 005°09'1118.2
2015-Jun-25 07:33N 37°17' E 004°56'5417.9
2015-Jun-25 04:33N 37°07' E 003°50'1716.9
2015-Jun-25 03:33N 37°05' E 003°29'1717.1
2015-Jun-25 02:33N 37°02' E 003°08'1818.0
2015-Jun-25 01:32N 36°60' E 002°45'3818.0
2015-Jun-24 23:27N 36°53' E 001°59'5217.7
2015-Jun-24 20:30N 36°45' E 000°54'1817.8
2015-Jun-24 19:28N 36°42' E 000°31'1617.7
2015-Jun-24 18:32N 36°40' E 000°11'1817.6
2015-Jun-24 17:29N 36°36' W 000°11'1920.2
2015-Jun-24 16:33N 36°33' W 000°35'1919.0
2015-Jun-24 15:31N 36°31' W 000°59'1918.7
2015-Jun-24 14:31N 36°28' W 001°21'4117.4
2015-Jun-24 12:10N 36°20' W 002°12'1421.1
2015-Jun-24 11:30N 36°19' W 002°29'13322.4
2015-Jun-24 05:33N 35°59' W 005°12'2821.9
2015-Jun-24 04:17N 35°55' W 005°46'1721.0
2015-Jun-24 03:27N 35°54' W 006°08'57417.2
2015-Jun-22 18:03N 45°16' W 008°38'11821.2
2015-Jun-22 12:29N 47°00' W 007°19'2021.3
2015-Jun-22 11:33N 47°18' W 007°05'2221.6
2015-Jun-22 10:33N 47°37' W 006°49'2221.6
2015-Jun-22 09:33N 47°56' W 006°33'2320.8
2015-Jun-22 08:27N 48°16' W 006°17'1820.3
2015-Jun-22 07:34N 48°32' W 006°05'2020.2
2015-Jun-22 06:34N 48°50' W 005°51'1919.2
2015-Jun-22 05:33N 49°02' W 005°28'1616.4
2015-Jun-22 04:33N 49°11' W 005°07'1616.3
2015-Jun-22 03:33N 49°19' W 004°45'1817.1
2015-Jun-22 02:31N 49°27' W 004°21'1717.4
2015-Jun-22 01:33N 49°35' W 003°58'1716.9
2015-Jun-22 00:32N 49°43' W 003°35'1515.8
2015-Jun-21 23:34N 49°51' W 003°14'1714.9
2015-Jun-21 22:25N 49°58' W 002°50'1314.5
2015-Jun-21 21:33N 50°02' W 002°32'1514.7
2015-Jun-21 20:33N 50°07' W 002°10'2016.1
2015-Jun-21 19:20N 50°12' W 001°41'1417.7
2015-Jun-21 18:32N 50°16' W 001°19'1918.6
2015-Jun-21 17:29N 50°21' W 000°50'1717.9
2015-Jun-21 16:33N 50°25' W 000°24'1716.9
2015-Jun-21 15:33N 50°30' E 000°01'1616.0
2015-Jun-21 14:34N 50°34' E 000°25'1514.7
2015-Jun-21 13:34N 50°40' E 000°47'1514.5
2015-Jun-21 12:34N 50°48' E 001°05'1616.1
2015-Jun-21 11:33N 50°59' E 001°24'2019.6
2015-Jun-21 10:34N 51°13' E 001°46'1616.2
2015-Jun-21 09:33N 51°23' E 002°06'1717.4
2015-Jun-21 08:33N 51°23' E 002°34'1313.2
2015-Jun-21 07:34N 51°25' E 002°55'1514.8
2015-Jun-21 06:34N 51°24' E 003°19'1212.5
2015-Jun-21 05:34N 51°26' E 003°39'1111.2
2015-Jun-21 04:33N 51°22' E 003°55'6 6.3
2015-Jun-21 03:33N 51°22' E 004°05'7 7.5
2015-Jun-21 02:33N 51°19' E 004°16'2 2.0
2015-Jun-21 01:31N 51°18' E 004°15'0 0.0
2015-Jun-21 00:28N 51°18' E 004°15'0 0.0
2015-Jun-20 23:31N 51°18' E 004°15'0 0.0
2015-Jun-20 22:31N 51°18' E 004°15'0 0.0
2015-Jun-20 21:31N 51°18' E 004°15'0 0.0
2015-Jun-20 20:31N 51°18' E 004°15'0 0.0
2015-Jun-20 19:31N 51°18' E 004°15'0 0.0
2015-Jun-20 18:31N 51°18' E 004°15'0 0.0
2015-Jun-20 17:31N 51°18' E 004°15'0 0.0
2015-Jun-20 16:31N 51°18' E 004°15'0 0.0
2015-Jun-20 15:31N 51°18' E 004°15'0 0.0
2015-Jun-20 14:31N 51°18' E 004°15'0 0.0
2015-Jun-20 13:31N 51°18' E 004°15'0 0.0
2015-Jun-20 12:31N 51°18' E 004°15'0 0.0
2015-Jun-20 11:28N 51°18' E 004°15'0 0.0
2015-Jun-20 10:31N 51°18' E 004°15'0 0.0
2015-Jun-20 09:31N 51°18' E 004°15'0 0.0
2015-Jun-20 08:31N 51°18' E 004°15'0 0.0
2015-Jun-20 07:31N 51°18' E 004°15'0 0.0
2015-Jun-20 06:31N 51°18' E 004°15'0 0.0
2015-Jun-20 05:31N 51°18' E 004°15'0 0.0
2015-Jun-20 04:31N 51°18' E 004°16'0 0.0
2015-Jun-20 03:31N 51°18' E 004°15'0 0.0
2015-Jun-20 02:31N 51°18' E 004°15'0 0.0
2015-Jun-20 01:28N 51°18' E 004°15'0 0.0
2015-Jun-20 00:31N 51°18' E 004°15'0 0.0
2015-Jun-19 23:31N 51°18' E 004°15'0 0.0
2015-Jun-19 22:31N 51°18' E 004°15'1 1.2
2015-Jun-19 21:33N 51°19' E 004°16'6 6.4
2015-Jun-19 20:33N 51°22' E 004°08'7 6.9
2015-Jun-19 19:33N 51°23' E 003°57'9 8.6
2015-Jun-19 18:33N 51°23' E 003°43'9 9.0
2015-Jun-19 17:33N 51°25' E 003°29'1616.4
2015-Jun-19 16:33N 51°24' E 003°03'1313.3
2015-Jun-19 15:33N 51°37' E 003°10'1212.4
2015-Jun-19 14:33N 51°48' E 003°19'2 1.0
2015-Jun-19 12:15N 51°49' E 003°22'0 0.0
2015-Jun-19 11:33N 51°49' E 003°22'0 0.0
2015-Jun-19 09:24N 51°49' E 003°22'0 0.1
2015-Jun-19 08:30N 51°49' E 003°22'0 0.1
2015-Jun-19 07:24N 51°49' E 003°22'0 0.1
2015-Jun-19 06:21N 51°49' E 003°23'0 0.1
2015-Jun-19 05:30N 51°49' E 003°23'0 0.0
2015-Jun-19 04:12N 51°49' E 003°23'0 0.0
2015-Jun-19 03:18N 51°49' E 003°23'0 0.0
2015-Jun-19 02:27N 51°49' E 003°23'0 0.1
2015-Jun-19 01:33N 51°49' E 003°23'0 0.1
2015-Jun-18 22:27N 51°49' E 003°22'0 0.1
2015-Jun-18 21:33N 51°49' E 003°22'5 5.2
2015-Jun-18 20:31N 51°54' E 003°19'7 7.3
2015-Jun-18 19:33N 52°01' E 003°19'2712.9
2015-Jun-18 17:26N 52°28' E 003°28'1112.3
2015-Jun-18 16:32N 52°39' E 003°32'1212.1
2015-Jun-18 15:32N 52°49' E 003°41'4 3.7
2015-Jun-18 14:34N 52°53' E 003°44'1 1.1
2015-Jun-18 13:34N 52°53' E 003°42'1 1.2
2015-Jun-18 12:25N 52°54' E 003°41'1214.5
2015-Jun-18 11:33N 52°59' E 004°00'1716.7
2015-Jun-18 10:34N 53°09' E 004°22'1313.2
2015-Jun-18 09:33N 53°21' E 004°32'1111.0
2015-Jun-18 08:33N 53°30' E 004°43'10 9.7
2015-Jun-18 07:33N 53°34' E 004°58'10 9.8
2015-Jun-18 06:33N 53°37' E 005°14'1010.5
2015-Jun-18 05:33N 53°40' E 005°30'1111.4
2015-Jun-18 04:33N 53°44' E 005°49'1212.2
2015-Jun-18 03:33N 53°48' E 006°09'1212.5
2015-Jun-18 02:33N 53°51' E 006°29'1612.5
2015-Jun-18 01:18N 53°55' E 006°55'912.0
2015-Jun-18 00:33N 53°57' E 007°09'1111.5
2015-Jun-17 23:33N 53°59' E 007°29'1010.4
2015-Jun-17 22:34N 53°54' E 007°45'1414.3
2015-Jun-17 21:34N 53°49' E 008°07'1312.8
2015-Jun-17 20:33N 53°40' E 008°23'6 6.0
2015-Jun-17 19:32N 53°36' E 008°31'0 0.0
2015-Jun-17 18:32N 53°36' E 008°31'0 0.0
2015-Jun-17 17:32N 53°36' E 008°31'0 0.0
2015-Jun-17 16:32N 53°36' E 008°31'0 0.0
2015-Jun-17 15:32N 53°36' E 008°31'0 0.0
2015-Jun-17 14:32N 53°36' E 008°31'0 0.0
2015-Jun-17 13:29N 53°36' E 008°31'0 0.0
2015-Jun-17 12:32N 53°36' E 008°31'0 0.0
2015-Jun-17 11:32N 53°36' E 008°31'0 0.0
2015-Jun-17 10:32N 53°36' E 008°31'0 0.0
2015-Jun-17 09:32N 53°36' E 008°31'0 0.0
2015-Jun-17 08:32N 53°36' E 008°31'0 0.0
2015-Jun-17 07:32N 53°36' E 008°31'0 0.0
2015-Jun-17 06:32N 53°36' E 008°31'0 0.0
2015-Jun-17 05:32N 53°36' E 008°31'0 0.0
2015-Jun-17 04:32N 53°36' E 008°31'0 0.0
2015-Jun-17 03:32N 53°36' E 008°31'0 0.0
2015-Jun-17 02:32N 53°36' E 008°31'0 0.0
2015-Jun-17 01:32N 53°36' E 008°31'0 0.0
2015-Jun-17 00:32N 53°36' E 008°31'0 0.0
2015-Jun-16 23:32N 53°36' E 008°31'0 0.0
2015-Jun-16 22:32N 53°36' E 008°31'0 0.0
2015-Jun-16 21:32N 53°36' E 008°31'0 0.0
2015-Jun-16 20:32N 53°36' E 008°31'0 0.0
2015-Jun-16 19:32N 53°36' E 008°31'0 0.0
2015-Jun-16 18:32N 53°36' E 008°31'0 0.0
2015-Jun-16 17:32N 53°36' E 008°31'0 0.0
2015-Jun-16 16:32N 53°36' E 008°31'0 0.0
2015-Jun-16 15:32N 53°36' E 008°31'0 0.0
2015-Jun-16 14:32N 53°36' E 008°31'0 0.0
2015-Jun-16 13:29N 53°36' E 008°31'0 0.0
2015-Jun-16 12:23N 53°36' E 008°31'  

Dump ship's entire track history